createdAt,value
2018-01-01T00:02:06.890Z,4.77
2018-01-01T00:04:34.914Z,4.83
2018-01-01T00:07:02.895Z,5.10
2018-01-01T00:09:30.905Z,4.47
2018-01-01T00:11:58.927Z,5.10
2018-01-01T00:14:26.933Z,4.03
2018-01-01T00:16:54.921Z,4.17
2018-01-01T00:19:22.938Z,3.23
2018-01-01T00:21:50.969Z,3.50
2018-01-01T00:24:19.258Z,3.23
2018-01-01T00:26:47.486Z,3.60
2018-01-01T00:29:15.536Z,3.70
2018-01-01T00:31:43.556Z,3.97
2018-01-01T00:34:11.549Z,3.20
2018-01-01T00:36:39.528Z,2.73
2018-01-01T00:39:07.544Z,3.10
2018-01-01T00:41:35.595Z,2.90
2018-01-01T00:44:03.630Z,3.17
2018-01-01T00:46:31.695Z,2.13
2018-01-01T00:49:14.709Z,2.33
2018-01-01T00:51:42.716Z,2.40
2018-01-01T00:54:10.733Z,2.47
2018-01-01T00:56:38.728Z,2.30
2018-01-01T00:59:06.731Z,2.60
2018-01-01T01:01:34.746Z,2.00
2018-01-01T01:04:02.738Z,2.00
2018-01-01T01:06:30.768Z,2.40
2018-01-01T01:08:58.764Z,2.40
2018-01-01T01:11:26.833Z,1.77
2018-01-01T01:13:54.875Z,1.50
2018-01-01T01:16:22.891Z,2.10
2018-01-01T01:18:50.895Z,1.27
2018-01-01T01:21:18.885Z,1.93
2018-01-01T01:23:46.879Z,1.60
2018-01-01T01:26:14.859Z,1.87
2018-01-01T01:28:42.887Z,1.80
2018-01-01T01:31:10.925Z,1.43
2018-01-01T01:33:38.965Z,1.43
2018-01-01T01:36:06.979Z,1.90
2018-01-01T01:38:35.011Z,1.80
2018-01-01T01:41:03.011Z,1.73
2018-01-01T01:43:31.055Z,1.77
2018-01-01T01:45:59.118Z,1.70
2018-01-01T01:48:33.277Z,1.63
2018-01-01T01:51:01.331Z,1.77
2018-01-01T01:53:29.373Z,1.60
2018-01-01T01:55:57.363Z,1.10
2018-01-01T01:58:25.356Z,2.50
2018-01-01T02:00:53.426Z,1.53
2018-01-01T02:03:21.435Z,1.07
2018-01-01T02:05:49.502Z,1.83
2018-01-01T02:08:17.475Z,1.17
2018-01-01T02:10:45.493Z,1.50
2018-01-01T02:13:13.538Z,1.03
2018-01-01T02:15:41.568Z,1.30
2018-01-01T02:18:09.615Z,1.17
2018-01-01T02:20:37.653Z,1.27
2018-01-01T02:23:05.683Z,1.20
2018-01-01T02:25:33.697Z,1.93
2018-01-01T02:28:01.713Z,1.40
2018-01-01T02:30:29.741Z,1.57
2018-01-01T02:32:57.784Z,1.23
2018-01-01T02:35:25.803Z,1.37
2018-01-01T02:37:53.888Z,1.30
2018-01-01T02:40:21.922Z,1.40
2018-01-01T02:42:49.945Z,1.40
2018-01-01T02:45:18.055Z,1.60
2018-01-01T02:47:46.045Z,1.20
2018-01-01T02:50:14.098Z,0.93
2018-01-01T02:52:42.124Z,1.73
2018-01-01T02:55:10.144Z,1.35
2018-01-01T02:57:38.186Z,1.10
2018-01-01T03:00:06.204Z,1.60
2018-01-01T03:02:34.221Z,1.30
2018-01-01T03:05:02.209Z,1.20
2018-01-01T03:07:30.233Z,1.13
2018-01-01T03:09:58.296Z,1.83
2018-01-01T03:12:26.406Z,1.00
2018-01-01T03:14:54.380Z,1.13
2018-01-01T03:17:22.421Z,1.20
2018-01-01T03:19:50.479Z,1.30
2018-01-01T03:22:18.489Z,0.90
2018-01-01T03:24:46.573Z,1.43
2018-01-01T03:27:14.625Z,1.13
2018-01-01T03:29:42.639Z,2.00
2018-01-01T03:32:10.677Z,0.90
2018-01-01T03:34:38.672Z,1.20
2018-01-01T03:37:06.659Z,1.45
2018-01-01T03:39:34.721Z,1.07
2018-01-01T03:42:03.750Z,1.53
2018-01-01T03:44:31.765Z,1.17
2018-01-01T03:46:59.731Z,1.30
2018-01-01T03:49:27.751Z,0.77
2018-01-01T03:51:56.003Z,0.80
2018-01-01T03:54:23.991Z,1.20
2018-01-01T03:56:51.998Z,0.93
2018-01-01T03:59:20.017Z,0.90
2018-01-01T04:01:48.027Z,1.13
2018-01-01T04:04:16.094Z,1.25
2018-01-01T04:06:44.095Z,0.60
2018-01-01T04:09:12.121Z,0.88
2018-01-01T04:11:40.135Z,0.55
2018-01-01T04:14:08.145Z,0.80
2018-01-01T04:16:36.141Z,0.90
2018-01-01T04:19:04.158Z,0.75
2018-01-01T04:21:32.191Z,1.10
2018-01-01T04:24:00.213Z,0.77
2018-01-01T04:26:28.269Z,0.80
2018-01-01T04:29:06.302Z,0.88
2018-01-01T04:31:34.321Z,1.65
2018-01-01T04:34:02.341Z,1.00
2018-01-01T04:36:30.399Z,0.70
2018-01-01T04:38:58.462Z,0.60
2018-01-01T04:41:26.484Z,0.80
2018-01-01T04:43:54.509Z,1.25
2018-01-01T04:46:22.535Z,0.70
2018-01-01T04:48:50.564Z,1.58
2018-01-01T04:51:18.583Z,0.70
2018-01-01T04:53:46.656Z,0.95
2018-01-01T04:56:14.633Z,0.90
2018-01-01T04:58:43.773Z,1.27
2018-01-01T05:01:11.824Z,0.93
2018-01-01T05:03:39.834Z,1.80
2018-01-01T05:06:07.838Z,1.17
2018-01-01T05:08:35.851Z,1.00
2018-01-01T05:11:03.866Z,0.95
2018-01-01T05:13:31.855Z,1.20
2018-01-01T05:15:59.907Z,0.85
2018-01-01T05:18:27.943Z,1.05
2018-01-01T05:20:55.967Z,1.08
2018-01-01T05:23:23.975Z,0.90
2018-01-01T05:25:52.048Z,1.08
2018-01-01T05:28:20.089Z,1.00
2018-01-01T05:30:48.083Z,1.12
2018-01-01T05:33:16.201Z,0.50
2018-01-01T05:35:45.269Z,0.95
2018-01-01T05:38:13.268Z,0.82
2018-01-01T05:40:41.275Z,1.00
2018-01-01T05:43:09.297Z,0.55
2018-01-01T05:45:37.305Z,0.50
2018-01-01T05:48:05.315Z,0.70
2018-01-01T05:50:33.341Z,1.02
2018-01-01T05:53:01.376Z,0.85
2018-01-01T05:55:29.386Z,0.90
2018-01-01T05:57:57.505Z,1.05
2018-01-01T06:00:25.553Z,0.70
2018-01-01T06:02:54.361Z,0.75
2018-01-01T06:05:22.448Z,0.68
2018-01-01T06:07:50.448Z,0.88
2018-01-01T06:10:18.436Z,1.30
2018-01-01T06:12:46.418Z,0.90
2018-01-01T06:15:14.451Z,0.88
2018-01-01T06:17:43.530Z,0.80
2018-01-01T06:20:11.539Z,0.50
2018-01-01T06:22:39.569Z,1.10
2018-01-01T06:25:07.589Z,0.80
2018-01-01T06:27:35.589Z,0.90
2018-01-01T06:30:03.615Z,1.10
2018-01-01T06:32:31.645Z,1.42
2018-01-01T06:34:59.619Z,1.15
2018-01-01T06:37:27.664Z,0.57
2018-01-01T06:39:56.301Z,0.88
2018-01-01T06:42:24.328Z,0.75
2018-01-01T06:44:52.353Z,0.80
2018-01-01T06:47:20.381Z,0.93
2018-01-01T06:49:48.409Z,0.90
2018-01-01T06:52:16.475Z,0.68
2018-01-01T06:54:44.470Z,0.35
2018-01-01T06:57:12.468Z,0.50
2018-01-01T06:59:40.503Z,1.05
2018-01-01T07:02:08.555Z,1.10
2018-01-01T07:04:36.577Z,0.95
2018-01-01T07:07:04.586Z,0.55
2018-01-01T07:09:32.599Z,0.50
2018-01-01T07:12:00.662Z,0.70
2018-01-01T07:14:28.636Z,0.77
2018-01-01T07:16:56.623Z,0.90
2018-01-01T07:19:24.632Z,0.57
2018-01-01T07:21:53.769Z,0.60
2018-01-01T07:24:22.863Z,1.90
2018-01-01T07:26:50.889Z,0.50
2018-01-01T07:29:18.965Z,0.70
2018-01-01T07:31:46.939Z,1.17
2018-01-01T07:34:14.947Z,0.35
2018-01-01T07:36:42.929Z,0.30
2018-01-01T07:39:10.895Z,0.47
2018-01-01T07:41:38.957Z,0.85
2018-01-01T07:44:07.144Z,0.43
2018-01-01T07:46:35.184Z,0.80
2018-01-01T07:49:03.204Z,0.60
2018-01-01T07:51:31.193Z,0.68
2018-01-01T07:53:59.181Z,1.33
2018-01-01T07:56:27.192Z,0.47
2018-01-01T07:58:55.227Z,0.50
2018-01-01T08:01:23.298Z,0.80
2018-01-01T08:03:51.309Z,0.73
2018-01-01T08:06:19.354Z,0.90
2018-01-01T08:08:47.405Z,0.73
2018-01-01T08:11:15.408Z,0.73
2018-01-01T08:13:43.406Z,0.82
2018-01-01T08:16:11.446Z,0.40
2018-01-01T08:18:39.462Z,0.40
2018-01-01T08:21:07.486Z,1.00
2018-01-01T08:23:35.536Z,0.40
2018-01-01T08:26:03.583Z,0.65
2018-01-01T08:28:32.643Z,0.55
2018-01-01T08:31:00.639Z,0.57
2018-01-01T08:33:28.653Z,2.58
2018-01-01T08:35:56.673Z,1.45
2018-01-01T08:38:24.700Z,0.65
2018-01-01T08:40:52.723Z,0.47
2018-01-01T08:43:20.743Z,0.98
2018-01-01T08:45:48.723Z,1.05
2018-01-01T08:48:16.712Z,0.47
2018-01-01T08:50:44.811Z,0.90
2018-01-01T08:53:12.825Z,0.65
2018-01-01T08:55:40.827Z,1.55
2018-01-01T08:58:08.828Z,0.90
2018-01-01T09:00:36.805Z,0.82
2018-01-01T09:03:04.785Z,0.85
2018-01-01T09:05:32.833Z,1.12
2018-01-01T09:08:00.838Z,0.60
2018-01-01T09:10:28.879Z,0.80
2018-01-01T09:12:56.867Z,0.85
2018-01-01T09:15:24.883Z,1.20
2018-01-01T09:17:52.915Z,0.75
2018-01-01T09:20:20.979Z,1.10
2018-01-01T09:22:48.987Z,1.15
2018-01-01T09:25:17.014Z,0.95
2018-01-01T09:27:45.040Z,0.98
2018-01-01T09:30:13.056Z,1.00
2018-01-01T09:32:42.189Z,1.05
2018-01-01T09:35:10.250Z,0.80
2018-01-01T09:37:38.249Z,1.02
2018-01-01T09:40:06.294Z,1.73
2018-01-01T09:42:34.328Z,1.30
2018-01-01T09:45:02.397Z,1.23
2018-01-01T09:47:30.458Z,1.05
2018-01-01T09:49:58.505Z,1.40
2018-01-01T09:52:26.517Z,0.82
2018-01-01T09:54:54.565Z,0.70
2018-01-01T09:57:22.589Z,0.80
2018-01-01T09:59:50.577Z,1.15
2018-01-01T10:02:18.666Z,0.80
2018-01-01T10:04:46.685Z,1.42
2018-01-01T10:07:18.224Z,1.85
2018-01-01T10:09:46.252Z,1.08
2018-01-01T10:12:14.249Z,1.60
2018-01-01T10:14:42.271Z,1.90
2018-01-01T10:17:10.341Z,1.23
2018-01-01T10:19:38.371Z,1.40
2018-01-01T10:22:06.374Z,2.00
2018-01-01T10:24:34.387Z,0.93
2018-01-01T10:27:02.417Z,1.97
2018-01-01T10:29:30.389Z,3.35
2018-01-01T10:31:58.397Z,1.60
2018-01-01T10:34:26.431Z,1.47
2018-01-01T10:36:54.447Z,0.90
2018-01-01T10:39:22.455Z,1.50
2018-01-01T10:41:50.477Z,0.70
2018-01-01T10:44:18.467Z,1.53
2018-01-01T10:46:46.523Z,2.10
2018-01-01T10:49:14.495Z,0.70
2018-01-01T10:51:42.523Z,1.00
2018-01-01T10:54:10.545Z,1.40
2018-01-01T10:56:38.538Z,1.80
2018-01-01T10:59:06.555Z,1.10
2018-01-01T11:01:34.620Z,1.50
2018-01-01T11:04:03.674Z,1.30
2018-01-01T11:06:31.611Z,0.70
2018-01-01T11:08:59.553Z,1.30
2018-01-01T11:11:27.447Z,0.77
2018-01-01T11:13:55.368Z,0.70
2018-01-01T11:16:23.301Z,1.00
2018-01-01T11:18:51.239Z,1.00
2018-01-01T11:21:19.148Z,1.40
2018-01-01T11:23:47.076Z,0.70
2018-01-01T11:26:14.974Z,0.53
2018-01-01T11:28:42.904Z,0.73
2018-01-01T11:31:10.822Z,0.57
2018-01-01T11:33:38.748Z,0.70
2018-01-01T11:36:07.708Z,0.67
2018-01-01T11:38:35.629Z,0.60
2018-01-01T11:41:03.538Z,0.52
2018-01-01T11:43:31.453Z,1.03
2018-01-01T11:45:59.370Z,0.70
2018-01-01T11:48:27.278Z,0.93
2018-01-01T11:50:55.178Z,0.90
2018-01-01T11:53:23.109Z,0.77
2018-01-01T11:55:52.060Z,0.95
2018-01-01T11:58:19.975Z,0.68
2018-01-01T12:00:48.979Z,0.75
2018-01-01T12:03:16.890Z,0.77
2018-01-01T12:05:44.819Z,1.42
2018-01-01T12:08:12.748Z,1.00
2018-01-01T12:10:40.665Z,0.60
2018-01-01T12:13:08.582Z,1.40
2018-01-01T12:15:36.520Z,1.10
2018-01-01T12:18:04.434Z,1.20
2018-01-01T12:20:32.338Z,0.73
2018-01-01T12:23:00.250Z,0.90
2018-01-01T12:25:28.174Z,1.20
2018-01-01T12:27:56.082Z,1.43
2018-01-01T12:30:24.017Z,1.98
2018-01-01T12:32:51.941Z,1.25
2018-01-01T12:35:19.850Z,1.90
2018-01-01T12:37:49.828Z,0.90
2018-01-01T12:40:17.743Z,1.37
2018-01-01T12:42:46.728Z,1.40
2018-01-01T12:45:15.782Z,1.03
2018-01-01T12:47:43.706Z,1.40
2018-01-01T12:50:11.606Z,1.03
2018-01-01T12:52:39.534Z,1.05
2018-01-01T12:55:07.442Z,0.88
2018-01-01T12:57:35.376Z,1.50
2018-01-01T13:00:03.318Z,1.53
2018-01-01T13:02:31.230Z,1.57
2018-01-01T13:04:59.146Z,1.67
2018-01-01T13:07:27.084Z,2.17
2018-01-01T13:09:54.998Z,1.20
2018-01-01T13:12:24.767Z,1.40
2018-01-01T13:14:52.687Z,0.98
2018-01-01T13:17:20.599Z,1.15
2018-01-01T13:19:48.525Z,1.30
2018-01-01T13:22:16.457Z,2.20
2018-01-01T13:24:44.375Z,2.10
2018-01-01T13:27:12.285Z,1.80
2018-01-01T13:29:40.225Z,1.90
2018-01-01T13:32:09.215Z,2.60
2018-01-01T13:34:37.126Z,1.65
2018-01-01T13:37:05.077Z,1.60
2018-01-01T13:39:33.001Z,1.70
2018-01-01T13:42:00.926Z,1.80
2018-01-01T13:44:28.844Z,2.00
2018-01-01T13:46:56.758Z,2.17
2018-01-01T13:49:24.688Z,1.80
2018-01-01T13:51:52.625Z,1.87
2018-01-01T13:54:21.539Z,1.75
2018-01-01T13:56:49.450Z,3.15
2018-01-01T13:59:17.401Z,2.20
2018-01-01T14:01:45.324Z,1.37
2018-01-01T14:04:13.256Z,1.50
2018-01-01T14:06:41.217Z,0.10
2018-01-01T14:09:09.140Z,0.10
2018-01-01T14:11:37.084Z,0.10
2018-01-01T14:14:06.025Z,0.10
2018-01-01T14:16:33.952Z,0.10
2018-01-01T14:19:01.881Z,0.10
2018-01-01T14:21:29.820Z,0.10
2018-01-01T14:23:57.743Z,0.10
2018-01-01T14:26:25.676Z,0.20
2018-01-01T14:28:53.595Z,0.10
2018-01-01T14:31:21.507Z,0.90
2018-01-01T14:33:49.430Z,1.05
2018-01-01T14:36:17.364Z,1.50
2018-01-01T14:38:45.283Z,1.77
2018-01-01T14:41:13.202Z,2.03
2018-01-01T14:43:41.148Z,1.92
2018-01-01T14:46:09.086Z,2.22
2018-01-01T14:48:37.048Z,3.03
2018-01-01T14:51:04.970Z,2.22
2018-01-01T14:53:32.909Z,1.77
2018-01-01T14:56:00.810Z,2.20
2018-01-01T14:58:28.744Z,2.33
2018-01-01T15:00:56.656Z,1.85
2018-01-01T15:03:24.600Z,1.35
2018-01-01T15:05:52.548Z,1.67
2018-01-01T15:08:20.461Z,1.62
2018-01-01T15:10:48.389Z,1.50
2018-01-01T15:13:16.298Z,1.60
2018-01-01T15:15:44.216Z,2.67
2018-01-01T15:18:12.161Z,1.42
2018-01-01T15:20:41.148Z,1.80
2018-01-01T15:23:09.054Z,1.52
2018-01-01T15:25:36.971Z,1.70
2018-01-01T15:28:04.878Z,1.40
2018-01-01T15:30:32.796Z,2.05
2018-01-01T15:33:00.698Z,1.98
2018-01-01T15:35:28.624Z,1.60
2018-01-01T15:37:56.554Z,2.15
2018-01-01T15:40:24.474Z,2.50
2018-01-01T15:42:52.391Z,1.10
2018-01-01T15:45:20.313Z,1.80
2018-01-01T15:47:48.232Z,1.62
2018-01-01T15:50:16.181Z,1.65
2018-01-01T15:52:44.097Z,1.67
2018-01-01T15:55:11.995Z,1.90
2018-01-01T15:57:39.915Z,1.90
2018-01-01T16:00:07.821Z,1.90
2018-01-01T16:02:35.759Z,1.77
2018-01-01T16:05:03.698Z,1.23
2018-01-01T16:07:31.620Z,1.98
2018-01-01T16:09:59.544Z,2.08
2018-01-01T16:12:27.484Z,2.60
2018-01-01T16:14:55.378Z,2.10
2018-01-01T16:17:23.316Z,1.60
2018-01-01T16:19:51.248Z,2.95
2018-01-01T16:22:19.168Z,1.70
2018-01-01T16:24:47.082Z,1.95
2018-01-01T16:27:15.006Z,1.60
2018-01-01T16:29:42.907Z,1.80
2018-01-01T16:32:10.799Z,2.20
2018-01-01T16:34:38.738Z,1.70
2018-01-01T16:37:06.648Z,1.20
2018-01-01T16:39:34.547Z,1.95
2018-01-01T16:42:02.481Z,1.70
2018-01-01T16:44:30.404Z,2.05
2018-01-01T16:46:58.322Z,1.17
2018-01-01T16:49:26.231Z,1.12
2018-01-01T16:51:54.120Z,2.20
2018-01-01T16:54:22.042Z,1.25
2018-01-01T16:56:49.964Z,1.52
2018-01-01T16:59:17.914Z,1.65
2018-01-01T17:01:45.837Z,1.55
2018-01-01T17:04:13.760Z,2.30
2018-01-01T17:06:41.723Z,1.15
2018-01-01T17:09:09.664Z,1.60
2018-01-01T17:11:37.612Z,1.52
2018-01-01T17:14:05.535Z,1.37
2018-01-01T17:16:33.468Z,1.85
2018-01-01T17:19:01.389Z,1.40
2018-01-01T17:21:29.282Z,1.50
2018-01-01T17:23:57.210Z,1.55
2018-01-01T17:26:25.118Z,1.80
2018-01-01T17:28:53.059Z,1.60
2018-01-01T17:31:21.018Z,1.52
2018-01-01T17:33:48.938Z,1.60
2018-01-01T17:36:16.861Z,1.48
2018-01-01T17:38:44.821Z,2.05
2018-01-01T17:41:12.742Z,1.90
2018-01-01T17:43:40.696Z,1.15
2018-01-01T17:46:08.634Z,2.20
2018-01-01T17:48:36.559Z,1.60
2018-01-01T17:51:04.517Z,1.73
2018-01-01T17:53:32.464Z,1.35
2018-01-01T17:56:01.452Z,1.70
2018-01-01T17:58:29.383Z,2.10
2018-01-01T18:00:57.343Z,1.40
2018-01-01T18:03:25.272Z,1.92
2018-01-01T18:05:53.227Z,1.23
2018-01-01T18:08:21.152Z,1.05
2018-01-01T18:10:49.064Z,1.42
2018-01-01T18:13:16.975Z,1.37
2018-01-01T18:15:44.896Z,1.83
2018-01-01T18:18:12.812Z,0.65
2018-01-01T18:20:40.732Z,1.00
2018-01-01T18:23:08.670Z,1.40
2018-01-01T18:25:36.584Z,1.02
2018-01-01T18:28:04.478Z,1.62
2018-01-01T18:30:32.408Z,0.90
2018-01-01T18:33:00.306Z,1.52
2018-01-01T18:35:28.221Z,1.00
2018-01-01T18:37:56.152Z,1.10
2018-01-01T18:40:24.094Z,1.10
2018-01-01T18:42:51.996Z,1.05
2018-01-01T18:45:19.933Z,1.35
2018-01-01T18:47:47.884Z,1.58
2018-01-01T18:50:15.840Z,1.10
2018-01-01T18:52:43.792Z,1.17
2018-01-01T18:55:11.705Z,0.98
2018-01-01T18:57:39.613Z,1.10
2018-01-01T19:00:07.542Z,1.30
2018-01-01T19:02:36.527Z,1.35
2018-01-01T19:05:04.437Z,1.25
2018-01-01T19:07:33.548Z,1.05
2018-01-01T19:10:01.441Z,1.40
2018-01-01T19:12:30.382Z,1.05
2018-01-01T19:14:58.282Z,1.23
2018-01-01T19:17:26.187Z,1.77
2018-01-01T19:19:54.138Z,0.70
2018-01-01T19:22:22.042Z,1.00
2018-01-01T19:24:49.954Z,1.20
2018-01-01T19:27:17.866Z,0.90
2018-01-01T19:29:45.798Z,1.35
2018-01-01T19:32:13.687Z,0.85
2018-01-01T19:34:41.620Z,1.58
2018-01-01T19:37:09.519Z,1.50
2018-01-01T19:39:37.415Z,1.05
2018-01-01T19:42:06.361Z,0.95
2018-01-01T19:44:34.305Z,1.15
2018-01-01T19:47:02.225Z,1.10
2018-01-01T19:49:30.172Z,0.82
2018-01-01T19:51:58.098Z,1.23
2018-01-01T19:54:26.023Z,0.77
2018-01-01T19:56:53.955Z,1.15
2018-01-01T19:59:21.870Z,1.20
2018-01-01T20:01:49.786Z,0.95
2018-01-01T20:04:17.702Z,1.08
2018-01-01T20:06:45.629Z,0.80
2018-01-01T20:09:13.552Z,0.70
2018-01-01T20:11:41.493Z,0.90
2018-01-01T20:14:09.406Z,0.85
2018-01-01T20:16:37.337Z,0.77
2018-01-01T20:19:05.270Z,1.17
2018-01-01T20:21:33.203Z,0.55
2018-01-01T20:24:01.158Z,0.73
2018-01-01T20:26:29.043Z,0.60
2018-01-01T20:28:57.994Z,1.08
2018-01-01T20:31:25.892Z,0.47
2018-01-01T20:33:53.822Z,0.60
2018-01-01T20:36:21.744Z,0.88
2018-01-01T20:38:49.700Z,0.60
2018-01-01T20:41:17.644Z,0.88
2018-01-01T20:43:45.565Z,0.37
2018-01-01T20:46:13.485Z,0.52
2018-01-01T20:48:41.396Z,0.88
2018-01-01T20:51:09.416Z,0.60
2018-01-01T20:53:37.302Z,0.50
2018-01-01T20:56:05.210Z,0.60
2018-01-01T20:58:33.269Z,0.65
2018-01-01T21:01:01.234Z,0.40
2018-01-01T21:03:29.152Z,0.30
2018-01-01T21:05:57.092Z,0.80
2018-01-01T21:08:25.015Z,0.45
2018-01-01T21:10:52.921Z,0.70
2018-01-01T21:13:20.855Z,0.37
2018-01-01T21:15:48.804Z,0.40
2018-01-01T21:18:16.707Z,0.82
2018-01-01T21:20:44.636Z,0.68
2018-01-01T21:23:12.529Z,0.37
2018-01-01T21:25:40.451Z,1.05
2018-01-01T21:28:08.362Z,0.60
2018-01-01T21:30:36.296Z,0.80
2018-01-01T21:33:04.219Z,1.10
2018-01-01T21:35:32.194Z,1.20
2018-01-01T21:38:00.129Z,1.05
2018-01-01T21:40:28.033Z,0.62
2018-01-01T21:42:55.972Z,0.90
2018-01-01T21:45:23.894Z,0.85
2018-01-01T21:47:51.833Z,0.62
2018-01-01T21:50:20.441Z,1.50
2018-01-01T21:52:48.632Z,0.70
2018-01-01T21:55:16.548Z,0.40
2018-01-01T21:57:44.485Z,0.90
2018-01-01T22:00:12.398Z,0.40
2018-01-01T22:02:40.302Z,0.70
2018-01-01T22:05:08.258Z,1.05
2018-01-01T22:07:36.199Z,0.40
2018-01-01T22:10:04.108Z,0.60
2018-01-01T22:12:32.039Z,0.68
2018-01-01T22:14:59.966Z,0.50
2018-01-01T22:17:27.924Z,0.88
2018-01-01T22:19:55.852Z,0.70
2018-01-01T22:22:23.814Z,0.77
2018-01-01T22:24:51.737Z,0.98
2018-01-01T22:27:19.685Z,0.95
2018-01-01T22:29:47.584Z,1.00
2018-01-01T22:32:15.500Z,0.90
2018-01-01T22:34:43.451Z,0.85
2018-01-01T22:37:11.380Z,0.70
2018-01-01T22:39:39.298Z,0.55
2018-01-01T22:42:07.206Z,0.60
2018-01-01T22:44:35.127Z,0.52
2018-01-01T22:47:03.036Z,0.73
2018-01-01T22:49:30.972Z,0.70
2018-01-01T22:51:58.885Z,0.57
2018-01-01T22:54:26.797Z,0.77
2018-01-01T22:56:54.725Z,0.50
2018-01-01T22:59:22.688Z,0.70
2018-01-01T23:01:50.594Z,0.62
2018-01-01T23:04:18.516Z,0.30
2018-01-01T23:06:46.427Z,0.60
2018-01-01T23:09:14.342Z,0.40
2018-01-01T23:11:42.282Z,0.43
2018-01-01T23:14:10.196Z,0.43
2018-01-01T23:16:38.107Z,0.30
2018-01-01T23:19:06.043Z,0.40
2018-01-01T23:21:33.969Z,0.52
2018-01-01T23:24:01.906Z,0.43
2018-01-01T23:26:29.826Z,0.50
2018-01-01T23:28:57.771Z,0.50
2018-01-01T23:31:25.695Z,0.50
2018-01-01T23:33:53.590Z,0.55
2018-01-01T23:36:21.491Z,0.40
2018-01-01T23:38:49.398Z,0.57
2018-01-01T23:41:17.340Z,0.62
2018-01-01T23:43:45.260Z,0.57
2018-01-01T23:46:13.172Z,0.60
2018-01-01T23:48:41.113Z,0.60
2018-01-01T23:51:09.014Z,0.52
2018-01-01T23:53:36.948Z,0.47
2018-01-01T23:56:04.881Z,0.60
2018-01-01T23:58:33.626Z,0.70
